createdAt,value
2022-11-29T00:01:11.985Z,18.20
2022-11-29T00:03:41.033Z,19.20
2022-11-29T00:06:10.897Z,19.07
2022-11-29T00:08:39.287Z,17.77
2022-11-29T00:11:07.228Z,15.05
2022-11-29T00:13:35.231Z,17.20
2022-11-29T00:16:06.983Z,16.33
2022-11-29T00:18:35.219Z,16.33
2022-11-29T00:21:07.319Z,16.77
2022-11-29T00:23:35.291Z,17.13
2022-11-29T00:26:06.548Z,18.17
2022-11-29T00:28:34.696Z,14.33
2022-11-29T00:31:12.925Z,14.47
2022-11-29T00:33:40.680Z,15.93
2022-11-29T00:36:10.169Z,14.87
2022-11-29T00:38:38.292Z,15.60
2022-11-29T00:41:06.763Z,16.45
2022-11-29T00:43:34.878Z,18.37
2022-11-29T00:46:02.764Z,15.30
2022-11-29T00:48:30.915Z,14.13
2022-11-29T00:50:58.930Z,16.10
2022-11-29T00:53:27.963Z,17.00
2022-11-29T00:55:55.676Z,14.50
2022-11-29T00:58:23.351Z,16.60
2022-11-29T01:00:51.812Z,15.07
2022-11-29T01:03:19.789Z,15.45
2022-11-29T01:05:47.774Z,15.65
2022-11-29T01:08:15.688Z,13.80
2022-11-29T01:10:44.770Z,16.38
2022-11-29T01:13:13.010Z,16.27
2022-11-29T01:15:41.470Z,16.97
2022-11-29T01:18:09.134Z,20.17
2022-11-29T01:20:36.787Z,16.98
2022-11-29T01:23:04.460Z,13.93
2022-11-29T01:25:32.611Z,15.05
2022-11-29T01:28:01.633Z,16.38
2022-11-29T01:30:29.591Z,15.60
2022-11-29T01:32:57.354Z,18.33
2022-11-29T01:35:25.054Z,15.97
2022-11-29T01:37:52.713Z,18.90
2022-11-29T01:40:20.438Z,22.47
2022-11-29T01:42:48.339Z,18.27
2022-11-29T01:45:23.590Z,18.60
2022-11-29T01:47:55.707Z,15.43
2022-11-29T01:50:23.753Z,20.13
2022-11-29T01:52:51.877Z,18.83
2022-11-29T01:55:20.051Z,18.47
2022-11-29T01:57:48.940Z,16.40
2022-11-29T02:00:21.270Z,14.93
2022-11-29T02:02:54.725Z,17.90
2022-11-29T02:05:23.280Z,19.98
2022-11-29T02:07:53.864Z,19.07
2022-11-29T02:10:33.655Z,14.97
2022-11-29T02:13:11.675Z,17.87
2022-11-29T02:15:45.843Z,14.43
2022-11-29T02:18:19.780Z,19.87
2022-11-29T02:21:19.817Z,18.27
2022-11-29T02:24:23.777Z,18.17
2022-11-29T02:27:12.072Z,16.50
2022-11-29T02:30:16.084Z,13.73
2022-11-29T02:33:28.328Z,20.25
2022-11-29T02:36:22.055Z,18.43
2022-11-29T02:39:08.173Z,19.23
2022-11-29T02:41:52.471Z,18.23
2022-11-29T02:44:49.852Z,19.40
2022-11-29T02:47:27.848Z,13.23
2022-11-29T02:50:13.803Z,14.53
2022-11-29T02:52:53.741Z,18.67
2022-11-29T02:55:29.702Z,16.97
2022-11-29T02:58:03.587Z,17.25
2022-11-29T03:00:34.229Z,13.55
2022-11-29T03:03:07.629Z,17.27
2022-11-29T03:05:42.718Z,20.83
2022-11-29T03:08:24.525Z,15.23
2022-11-29T03:11:14.264Z,17.03
2022-11-29T03:13:52.662Z,16.75
2022-11-29T03:16:30.690Z,15.50
2022-11-29T03:19:15.122Z,17.95
2022-11-29T03:21:53.825Z,13.97
2022-11-29T03:24:30.378Z,19.20
2022-11-29T03:27:02.721Z,17.23
2022-11-29T03:29:35.912Z,15.97
2022-11-29T03:32:12.558Z,18.57
2022-11-29T03:34:57.600Z,17.90
2022-11-29T03:37:30.804Z,17.38
2022-11-29T03:40:06.719Z,18.33
2022-11-29T03:42:40.676Z,18.73
2022-11-29T03:45:17.627Z,14.02
2022-11-29T03:47:53.471Z,22.63
2022-11-29T03:50:30.221Z,15.52
2022-11-29T03:53:04.428Z,20.88
2022-11-29T03:55:49.297Z,21.23
2022-11-29T03:58:33.665Z,16.17
2022-11-29T04:01:31.226Z,19.53
2022-11-29T04:04:41.864Z,16.77
2022-11-29T04:07:28.823Z,18.27
2022-11-29T04:10:17.345Z,14.60
2022-11-29T04:13:15.944Z,17.25
2022-11-29T04:16:16.115Z,17.07
2022-11-29T04:19:14.482Z,17.03
2022-11-29T04:22:01.242Z,18.27
2022-11-29T04:24:52.291Z,16.58
2022-11-29T04:27:31.784Z,17.70
2022-11-29T04:30:14.558Z,19.13
2022-11-29T04:33:15.891Z,27.93
2022-11-29T04:35:57.247Z,18.52
2022-11-29T04:38:56.415Z,18.25
2022-11-29T04:42:08.971Z,18.90
2022-11-29T04:44:57.468Z,20.27
2022-11-29T04:47:55.561Z,18.83
2022-11-29T04:50:40.950Z,15.57
2022-11-29T04:53:49.054Z,20.93
2022-11-29T04:56:26.583Z,16.77
2022-11-29T04:59:00.681Z,15.13
2022-11-29T05:01:36.948Z,23.67
2022-11-29T05:04:17.493Z,15.73
2022-11-29T05:06:55.522Z,18.67
2022-11-29T05:09:32.688Z,17.10
2022-11-29T05:12:09.492Z,17.90
2022-11-29T05:14:51.369Z,22.27
2022-11-29T05:17:31.858Z,19.37
2022-11-29T05:20:19.952Z,16.60
2022-11-29T05:23:01.654Z,18.13
2022-11-29T05:25:39.311Z,16.63
2022-11-29T05:28:14.261Z,17.20
2022-11-29T05:31:12.188Z,17.97
2022-11-29T05:33:56.886Z,21.60
2022-11-29T05:36:38.818Z,22.17
2022-11-29T05:39:29.914Z,19.77
2022-11-29T05:42:16.957Z,15.40
2022-11-29T05:44:48.972Z,17.07
2022-11-29T05:47:25.711Z,19.43
2022-11-29T05:50:04.073Z,17.00
2022-11-29T05:52:45.141Z,19.63
2022-11-29T05:55:25.953Z,17.80
2022-11-29T05:57:59.214Z,18.87
2022-11-29T06:00:32.781Z,19.37
2022-11-29T06:03:08.527Z,21.83
2022-11-29T06:05:40.385Z,20.30
2022-11-29T06:08:17.439Z,16.13
2022-11-29T06:10:57.008Z,17.63
2022-11-29T06:13:37.879Z,20.23
2022-11-29T06:16:24.396Z,17.60
2022-11-29T06:19:35.713Z,20.27
2022-11-29T06:22:22.281Z,18.23
2022-11-29T06:25:07.320Z,21.23
2022-11-29T06:27:46.126Z,17.40
2022-11-29T06:30:16.044Z,20.87
2022-11-29T06:32:50.577Z,22.93
2022-11-29T06:35:36.772Z,26.50
2022-11-29T06:38:10.545Z,16.93
2022-11-29T06:40:40.226Z,23.27
2022-11-29T06:43:08.391Z,19.37
2022-11-29T06:45:36.607Z,19.17
2022-11-29T06:48:07.786Z,18.97
2022-11-29T06:50:43.886Z,18.73
2022-11-29T06:53:20.388Z,25.97
2022-11-29T06:55:56.840Z,16.87
2022-11-29T06:58:43.842Z,15.93
2022-11-29T07:01:24.525Z,19.53
2022-11-29T07:04:25.594Z,17.57
2022-11-29T07:06:53.899Z,19.53
2022-11-29T07:09:28.493Z,17.13
2022-11-29T07:11:58.273Z,25.73
2022-11-29T07:14:26.640Z,20.60
2022-11-29T07:17:03.571Z,20.67
2022-11-29T07:19:41.639Z,17.40
2022-11-29T07:22:21.892Z,20.03
2022-11-29T07:25:01.360Z,19.13
2022-11-29T07:27:39.293Z,14.50
2022-11-29T07:30:15.256Z,20.37
2022-11-29T07:32:57.285Z,21.27
2022-11-29T07:35:36.758Z,20.90
2022-11-29T07:38:14.915Z,24.00
2022-11-29T07:40:51.999Z,18.87
2022-11-29T07:43:31.329Z,19.80
2022-11-29T07:45:59.305Z,22.40
2022-11-29T07:48:27.738Z,18.30
2022-11-29T07:50:55.876Z,25.20
2022-11-29T07:53:24.535Z,25.90
2022-11-29T07:55:53.051Z,20.23
2022-11-29T07:58:20.899Z,23.60
2022-11-29T08:00:50.356Z,21.67
2022-11-29T08:03:19.396Z,23.03
2022-11-29T08:05:48.404Z,19.13
2022-11-29T08:08:16.331Z,20.03
2022-11-29T08:10:45.474Z,20.37
2022-11-29T08:13:13.186Z,18.37
2022-11-29T08:15:45.388Z,19.63
2022-11-29T08:18:14.739Z,23.17
2022-11-29T08:20:43.104Z,19.60
2022-11-29T08:23:13.009Z,20.67
2022-11-29T08:25:40.800Z,21.03
2022-11-29T08:28:08.749Z,24.30
2022-11-29T08:30:36.465Z,25.53
2022-11-29T08:33:04.526Z,20.63
2022-11-29T08:35:35.421Z,24.37
2022-11-29T08:38:03.762Z,21.43
2022-11-29T08:40:31.672Z,24.47
2022-11-29T08:43:00.012Z,23.80
2022-11-29T08:45:27.839Z,19.90
2022-11-29T08:47:55.591Z,19.57
2022-11-29T08:50:23.460Z,24.77
2022-11-29T08:53:11.055Z,26.17
2022-11-29T08:55:40.580Z,20.00
2022-11-29T08:58:10.591Z,22.23
2022-11-29T09:00:38.786Z,20.77
2022-11-29T09:03:25.306Z,20.87
2022-11-29T09:05:53.574Z,24.20
2022-11-29T09:08:22.645Z,20.13
2022-11-29T09:10:51.069Z,22.13
2022-11-29T09:13:19.043Z,22.37
2022-11-29T09:15:46.894Z,22.60
2022-11-29T09:18:14.598Z,21.23
2022-11-29T09:20:43.873Z,22.53
2022-11-29T09:23:12.942Z,22.40
2022-11-29T09:25:42.086Z,22.87
2022-11-29T09:28:11.323Z,19.10
2022-11-29T09:30:39.132Z,26.43
2022-11-29T09:33:06.992Z,25.93
2022-11-29T09:35:35.189Z,21.53
2022-11-29T09:38:02.821Z,19.60
2022-11-29T09:40:35.002Z,22.43
2022-11-29T09:43:15.936Z,20.02
2022-11-29T09:45:47.435Z,21.87
2022-11-29T09:48:33.695Z,22.77
2022-11-29T09:51:12.008Z,25.93
2022-11-29T09:53:59.254Z,21.87
2022-11-29T09:56:31.712Z,23.00
2022-11-29T09:59:04.750Z,18.00
2022-11-29T10:01:38.411Z,19.50
2022-11-29T10:04:12.948Z,26.10
2022-11-29T10:06:44.307Z,25.00
2022-11-29T10:09:18.422Z,25.43
2022-11-29T10:11:59.067Z,20.10
2022-11-29T10:14:35.261Z,23.83
2022-11-29T10:17:11.223Z,24.00
2022-11-29T10:19:44.241Z,23.33
2022-11-29T10:22:18.764Z,23.60
2022-11-29T10:24:50.596Z,23.67
2022-11-29T10:27:23.065Z,22.50
2022-11-29T10:29:52.648Z,29.37
2022-11-29T10:32:22.588Z,23.35
2022-11-29T10:34:51.202Z,27.45
2022-11-29T10:37:21.771Z,26.53
2022-11-29T10:39:53.107Z,29.03
2022-11-29T10:42:40.791Z,28.07
2022-11-29T10:45:17.103Z,27.40
2022-11-29T10:47:47.580Z,30.50
2022-11-29T10:50:19.865Z,22.77
2022-11-29T10:52:47.772Z,25.33
2022-11-29T10:55:18.069Z,25.93
2022-11-29T10:58:12.407Z,27.47
2022-11-29T11:00:56.487Z,28.10
2022-11-29T11:03:32.091Z,24.42
2022-11-29T11:06:03.558Z,31.33
2022-11-29T11:08:32.655Z,26.58
2022-11-29T11:11:02.392Z,29.40
2022-11-29T11:13:32.730Z,28.40
2022-11-29T11:16:16.426Z,25.33
2022-11-29T11:18:45.721Z,31.90
2022-11-29T11:21:15.680Z,28.00
2022-11-29T11:23:52.747Z,26.83
2022-11-29T11:26:21.362Z,28.13
2022-11-29T11:28:53.357Z,33.07
2022-11-29T11:31:30.896Z,25.90
2022-11-29T11:34:27.645Z,26.63
2022-11-29T11:37:14.318Z,30.07
2022-11-29T11:39:42.858Z,22.77
2022-11-29T11:42:31.824Z,31.43
2022-11-29T11:45:00.448Z,30.67
2022-11-29T11:47:30.927Z,32.30
2022-11-29T11:50:13.377Z,31.43
2022-11-29T11:52:50.120Z,33.83
2022-11-29T11:55:32.016Z,33.63
2022-11-29T11:58:09.373Z,30.20
2022-11-29T12:01:02.866Z,34.13
2022-11-29T12:03:41.150Z,32.63
2022-11-29T12:06:29.746Z,33.03
2022-11-29T12:09:04.907Z,35.30
2022-11-29T12:11:40.852Z,33.87
2022-11-29T12:14:12.629Z,28.80
2022-11-29T12:16:42.693Z,35.33
2022-11-29T12:19:17.843Z,29.70
2022-11-29T12:21:53.118Z,33.85
2022-11-29T12:24:24.644Z,31.63
2022-11-29T12:26:57.962Z,24.43
2022-11-29T12:29:30.216Z,32.75
2022-11-29T12:32:15.326Z,32.73
2022-11-29T12:34:56.519Z,28.30
2022-11-29T12:37:33.751Z,27.90
2022-11-29T12:40:07.654Z,31.63
2022-11-29T12:42:47.146Z,29.83
2022-11-29T12:45:39.537Z,34.10
2022-11-29T12:48:19.107Z,38.83
2022-11-29T12:50:59.833Z,28.73
2022-11-29T12:53:49.726Z,40.17
2022-11-29T12:56:27.153Z,28.53
2022-11-29T12:59:09.775Z,23.50
2022-11-29T13:01:52.833Z,28.17
2022-11-29T13:04:28.766Z,37.63
2022-11-29T13:07:02.249Z,28.13
2022-11-29T13:09:51.467Z,28.88
2022-11-29T13:12:28.674Z,32.27
2022-11-29T13:15:04.144Z,31.20
2022-11-29T13:17:39.790Z,29.67
2022-11-29T13:20:21.797Z,28.03
2022-11-29T13:22:57.183Z,29.70
2022-11-29T13:25:31.731Z,34.10
2022-11-29T13:28:04.253Z,35.77
2022-11-29T13:30:34.761Z,31.87
2022-11-29T13:33:13.825Z,31.47
2022-11-29T13:35:49.956Z,27.47
2022-11-29T13:38:24.810Z,32.67
2022-11-29T13:41:01.408Z,29.77
2022-11-29T13:43:38.637Z,31.90
2022-11-29T13:46:18.033Z,29.97
2022-11-29T13:48:50.910Z,35.13
2022-11-29T13:51:27.250Z,27.97
2022-11-29T13:53:57.024Z,35.83
2022-11-29T13:56:32.778Z,36.30
2022-11-29T13:59:01.933Z,31.90
2022-11-29T14:01:29.846Z,32.20
2022-11-29T14:04:05.709Z,25.17
2022-11-29T14:06:36.501Z,36.47
2022-11-29T14:09:26.982Z,40.13
2022-11-29T14:12:04.482Z,34.00
2022-11-29T14:14:39.958Z,32.97
2022-11-29T14:17:35.884Z,32.23
2022-11-29T14:20:41.052Z,38.23
2022-11-29T14:23:16.572Z,37.83
2022-11-29T14:26:28.072Z,32.37
2022-11-29T14:28:59.517Z,34.10
2022-11-29T14:31:54.286Z,32.57
2022-11-29T14:34:37.743Z,39.83
2022-11-29T14:37:17.613Z,39.38
2022-11-29T14:39:48.435Z,34.33
2022-11-29T14:42:19.305Z,29.20
2022-11-29T14:44:52.046Z,30.27
2022-11-29T14:47:27.170Z,30.93
2022-11-29T14:49:56.493Z,35.60
2022-11-29T14:52:30.399Z,26.87
2022-11-29T14:55:01.852Z,26.08
2022-11-29T14:58:06.182Z,32.90
2022-11-29T15:00:43.240Z,28.27
2022-11-29T15:03:13.927Z,29.70
2022-11-29T15:05:45.017Z,32.97
2022-11-29T15:08:18.845Z,39.35
2022-11-29T15:10:50.881Z,28.93
2022-11-29T15:13:27.006Z,38.27
2022-11-29T15:16:19.547Z,29.30
2022-11-29T15:19:15.195Z,32.77
2022-11-29T15:21:52.084Z,35.87
2022-11-29T15:24:24.969Z,32.77
2022-11-29T15:26:57.391Z,40.33
2022-11-29T15:29:26.086Z,33.97
2022-11-29T15:31:57.729Z,31.47
2022-11-29T15:34:32.228Z,29.40
2022-11-29T15:37:00.676Z,31.17
2022-11-29T15:39:31.402Z,25.67
2022-11-29T15:42:05.144Z,35.33
2022-11-29T15:44:33.734Z,34.17
2022-11-29T15:47:22.973Z,30.67
2022-11-29T15:49:51.239Z,35.80
2022-11-29T15:52:25.555Z,34.73
2022-11-29T15:54:56.239Z,35.43
2022-11-29T15:57:27.433Z,32.13
2022-11-29T15:59:57.883Z,35.83
2022-11-29T16:02:29.136Z,34.30
2022-11-29T16:05:00.722Z,31.33
2022-11-29T16:07:34.339Z,42.40
2022-11-29T16:10:05.676Z,33.47
2022-11-29T16:12:33.506Z,36.17
2022-11-29T16:15:02.355Z,31.23
2022-11-29T16:17:34.153Z,35.03
2022-11-29T16:20:24.270Z,32.30
2022-11-29T16:23:15.034Z,32.67
2022-11-29T16:25:53.732Z,36.13
2022-11-29T16:28:21.645Z,36.67
2022-11-29T16:30:49.420Z,40.60
2022-11-29T16:33:23.075Z,38.47
2022-11-29T16:35:51.559Z,28.83
2022-11-29T16:38:22.288Z,34.93
2022-11-29T16:41:22.883Z,37.47
2022-11-29T16:43:55.102Z,39.20
2022-11-29T16:46:37.617Z,40.87
2022-11-29T16:49:35.460Z,40.73
2022-11-29T16:52:04.951Z,40.70
2022-11-29T16:54:34.202Z,43.00
2022-11-29T16:57:06.823Z,44.93
2022-11-29T16:59:35.461Z,44.77
2022-11-29T17:02:10.476Z,39.33
2022-11-29T17:04:39.521Z,43.25
2022-11-29T17:07:09.080Z,44.78
2022-11-29T17:09:36.883Z,42.47
2022-11-29T17:12:05.075Z,41.60
2022-11-29T17:14:33.282Z,47.13
2022-11-29T17:17:01.326Z,39.67
2022-11-29T17:19:29.996Z,51.47
2022-11-29T17:21:59.509Z,42.07
2022-11-29T17:24:27.401Z,44.37
2022-11-29T17:26:55.319Z,44.47
2022-11-29T17:29:23.180Z,47.40
2022-11-29T17:31:52.991Z,46.07
2022-11-29T17:34:21.028Z,40.72
2022-11-29T17:36:49.123Z,56.80
2022-11-29T17:39:20.113Z,43.83
2022-11-29T17:41:48.436Z,45.77
2022-11-29T17:44:16.463Z,47.53
2022-11-29T17:46:44.333Z,52.63
2022-11-29T17:49:12.196Z,55.50
2022-11-29T17:51:56.451Z,48.63
2022-11-29T17:54:25.758Z,54.17
2022-11-29T17:56:53.596Z,48.13
2022-11-29T17:59:21.451Z,46.57
2022-11-29T18:01:49.500Z,46.50
2022-11-29T18:04:17.859Z,54.00
2022-11-29T18:06:49.876Z,49.93
2022-11-29T18:09:19.716Z,51.93
2022-11-29T18:11:50.599Z,51.33
2022-11-29T18:14:20.723Z,47.17
2022-11-29T18:16:49.396Z,47.87
2022-11-29T18:19:19.270Z,47.43
2022-11-29T18:21:47.716Z,52.30
2022-11-29T18:24:15.753Z,52.37
2022-11-29T18:26:44.132Z,47.93
2022-11-29T18:29:13.705Z,42.17
2022-11-29T18:31:43.402Z,47.83
2022-11-29T18:34:13.356Z,52.85
2022-11-29T18:36:43.926Z,51.70
2022-11-29T18:39:15.420Z,53.03
2022-11-29T18:41:45.289Z,44.63
2022-11-29T18:44:16.674Z,45.30
2022-11-29T18:46:45.971Z,47.30
2022-11-29T18:49:15.956Z,57.83
2022-11-29T18:51:45.831Z,52.77
2022-11-29T18:54:14.865Z,52.80
2022-11-29T18:56:43.611Z,50.30
2022-11-29T18:59:16.491Z,52.43
2022-11-29T19:01:46.277Z,47.23
2022-11-29T19:04:17.325Z,53.47
2022-11-29T19:06:45.876Z,47.40
2022-11-29T19:09:16.136Z,42.43
2022-11-29T19:11:44.146Z,48.23
2022-11-29T19:14:14.183Z,49.43
2022-11-29T19:16:43.848Z,48.00
2022-11-29T19:19:12.152Z,57.77
2022-11-29T19:21:40.664Z,54.23
2022-11-29T19:24:18.009Z,44.80
2022-11-29T19:26:48.260Z,52.67
2022-11-29T19:29:17.429Z,48.03
2022-11-29T19:31:45.507Z,47.70
2022-11-29T19:34:13.332Z,56.37
2022-11-29T19:36:43.063Z,45.03
2022-11-29T19:39:13.069Z,55.33
2022-11-29T19:41:42.162Z,45.93
2022-11-29T19:44:09.955Z,50.50
2022-11-29T19:46:41.385Z,54.33
2022-11-29T19:49:10.171Z,58.23
2022-11-29T19:51:38.311Z,51.20
2022-11-29T19:54:08.001Z,50.67
2022-11-29T19:56:36.123Z,50.57
2022-11-29T19:59:03.961Z,51.03
2022-11-29T20:01:40.374Z,49.73
2022-11-29T20:04:13.561Z,44.50
2022-11-29T20:06:42.193Z,47.60
2022-11-29T20:09:10.760Z,52.43
2022-11-29T20:11:39.056Z,51.67
2022-11-29T20:14:08.722Z,62.13
2022-11-29T20:16:38.840Z,48.73
2022-11-29T20:19:11.747Z,52.43
2022-11-29T20:21:43.136Z,60.00
2022-11-29T20:24:12.814Z,51.83
2022-11-29T20:26:43.145Z,48.47
2022-11-29T20:29:11.707Z,44.93
2022-11-29T20:31:45.933Z,50.53
2022-11-29T20:34:18.651Z,53.57
2022-11-29T20:37:00.616Z,55.73
2022-11-29T20:39:35.611Z,51.97
2022-11-29T20:42:39.135Z,49.10
2022-11-29T20:45:09.123Z,51.27
2022-11-29T20:47:45.826Z,49.03
2022-11-29T20:50:23.100Z,55.50
2022-11-29T20:53:02.436Z,42.67
2022-11-29T20:55:30.527Z,54.90
2022-11-29T20:57:58.206Z,57.17
2022-11-29T21:00:25.992Z,61.70
2022-11-29T21:02:53.811Z,63.83
2022-11-29T21:05:22.918Z,48.53
2022-11-29T21:07:50.615Z,63.10
2022-11-29T21:10:19.260Z,61.13
2022-11-29T21:12:47.412Z,55.67
2022-11-29T21:15:16.428Z,72.00
2022-11-29T21:17:45.356Z,65.13
2022-11-29T21:20:18.997Z,64.33
2022-11-29T21:22:54.727Z,57.07
2022-11-29T21:25:31.518Z,61.60
2022-11-29T21:28:01.047Z,62.43
2022-11-29T21:30:29.059Z,64.90
2022-11-29T21:32:57.333Z,68.23
2022-11-29T21:35:26.082Z,62.73
2022-11-29T21:37:59.419Z,55.00
2022-11-29T21:40:28.076Z,63.70
2022-11-29T21:42:55.796Z,69.20
2022-11-29T21:45:23.511Z,65.93
2022-11-29T21:47:51.258Z,62.27
2022-11-29T21:50:19.014Z,62.70
2022-11-29T21:52:46.712Z,62.23
2022-11-29T21:55:15.789Z,67.20
2022-11-29T21:57:43.508Z,71.83
2022-11-29T22:00:12.150Z,66.93
2022-11-29T22:02:39.979Z,61.77
2022-11-29T22:05:09.485Z,63.47
2022-11-29T22:07:37.168Z,57.20
2022-11-29T22:10:11.614Z,56.20
2022-11-29T22:12:51.392Z,53.97
2022-11-29T22:15:24.475Z,64.63
2022-11-29T22:17:52.637Z,54.60
2022-11-29T22:20:20.577Z,57.40
2022-11-29T22:22:48.524Z,54.40
2022-11-29T22:25:16.344Z,52.23
2022-11-29T22:27:45.381Z,61.27
2022-11-29T22:30:13.753Z,57.73
2022-11-29T22:32:41.383Z,61.03
2022-11-29T22:35:09.831Z,48.93
2022-11-29T22:37:37.545Z,54.53
2022-11-29T22:40:07.141Z,48.23
2022-11-29T22:42:34.817Z,48.27
2022-11-29T22:45:04.435Z,57.40
2022-11-29T22:47:32.111Z,46.13
2022-11-29T22:49:59.751Z,55.80
2022-11-29T22:52:28.237Z,51.30
2022-11-29T22:54:59.921Z,44.37
2022-11-29T22:57:30.685Z,58.03
2022-11-29T22:59:58.355Z,51.77
2022-11-29T23:02:28.968Z,50.03
2022-11-29T23:04:56.716Z,50.43
2022-11-29T23:07:24.380Z,43.50
2022-11-29T23:09:52.034Z,48.10
2022-11-29T23:12:20.678Z,50.30
2022-11-29T23:14:52.946Z,39.40
2022-11-29T23:21:03.607Z,43.77
2022-11-29T23:26:20.303Z,32.13
2022-11-29T23:28:48.264Z,43.73
2022-11-29T23:31:16.156Z,49.57
2022-11-29T23:33:45.452Z,47.67
2022-11-29T23:36:16.582Z,41.37
2022-11-29T23:38:44.466Z,45.73
2022-11-29T23:41:13.090Z,45.33
2022-11-29T23:43:42.035Z,40.30
2022-11-29T23:46:11.526Z,41.00
2022-11-29T23:48:39.289Z,51.47
2022-11-29T23:51:07.217Z,34.40
2022-11-29T23:53:36.633Z,42.17
2022-11-29T23:56:06.504Z,50.23
2022-11-29T23:58:35.539Z,42.00
